TAF Text Data
IDs:
Format:
Raw Decoded Include METAR

Data at: 1349 UTC 27 Nov 2021

KLEB 271125Z 2712/2812 31010KT P6SM OVC020
  FM271500 30015G23KT P6SM OVC035
  FM271900 29015G24KT P6SM BKN250
  FM280000 29009KT P6SM SKC